createdAt,value
2019-01-04T22:41:48.236Z,40.21
2019-01-04T22:42:48.215Z,38.51
2019-01-04T22:43:48.211Z,39.10
2019-01-04T22:47:42.062Z,34.38
2019-01-04T22:48:43.682Z,43.51
2019-01-04T22:49:43.666Z,56.24
2019-01-04T22:50:43.667Z,67.88
2019-01-04T22:51:44.667Z,75.60
2019-01-04T22:52:43.667Z,80.60
2019-01-04T22:53:43.679Z,83.25
2019-01-04T22:54:44.680Z,84.44
2019-01-04T22:55:44.685Z,85.95
2019-01-04T22:56:44.667Z,87.21
2019-01-04T22:57:44.675Z,87.88
2019-01-04T22:58:43.703Z,87.63
2019-01-04T22:59:43.671Z,89.21
2019-01-04T23:00:43.667Z,88.68
2019-01-04T23:01:43.671Z,88.93
2019-01-04T23:02:43.682Z,88.47
2019-01-04T23:03:43.671Z,89.14
2019-01-04T23:04:43.699Z,89.42
2019-01-04T23:05:43.666Z,89.84
2019-01-04T23:06:43.669Z,89.67
2019-01-04T23:07:43.666Z,89.42
2019-01-04T23:08:43.674Z,90.40
2019-01-04T23:09:41.859Z,90.09
2019-01-04T23:10:43.667Z,90.36
2019-01-04T23:11:43.669Z,90.40
2019-01-04T23:12:43.666Z,90.36
2019-01-04T23:13:43.685Z,89.94
2019-01-04T23:14:43.679Z,90.36
2019-01-04T23:15:43.666Z,90.30
2019-01-04T23:16:43.716Z,89.73
2019-01-04T23:17:43.665Z,90.25
2019-01-04T23:18:43.666Z,90.40
2019-01-04T23:19:43.677Z,89.87
2019-01-04T23:20:44.674Z,90.47
2019-01-04T23:21:43.670Z,90.15
2019-01-04T23:22:43.671Z,90.30
2019-01-04T23:23:43.162Z,89.94
2019-01-04T23:24:43.185Z,90.25
2019-01-04T23:25:43.163Z,89.73
2019-01-04T23:26:43.164Z,89.73
2019-01-04T23:27:43.164Z,90.47
2019-01-04T23:28:41.609Z,90.47
2019-01-04T23:29:43.178Z,89.84
2019-01-04T23:30:43.163Z,90.05
2019-01-04T23:31:43.161Z,89.94
2019-01-04T23:32:43.172Z,89.84
2019-01-04T23:33:43.163Z,90.15
2019-01-04T23:34:43.173Z,90.25
2019-01-04T23:35:43.162Z,90.47
2019-01-04T23:36:43.180Z,89.94
2019-01-04T23:37:43.160Z,90.05
2019-01-04T23:38:43.179Z,90.36
2019-01-04T23:39:43.174Z,90.36
2019-01-04T23:40:43.160Z,90.47
2019-01-04T23:41:43.167Z,90.25
2019-01-04T23:42:43.167Z,90.47
2019-01-04T23:43:43.160Z,90.05
2019-01-04T23:44:43.173Z,90.11
2019-01-04T23:45:43.159Z,90.22
2019-01-04T23:46:43.159Z,91.52
2019-01-04T23:47:41.403Z,90.78
2019-01-04T23:48:43.166Z,90.32
2019-01-04T23:49:43.176Z,90.57
2019-01-04T23:50:43.180Z,89.90
2019-01-04T23:51:43.163Z,90.36
2019-01-04T23:52:43.163Z,89.37
2019-01-04T23:53:43.159Z,90.32
2019-01-04T23:54:43.172Z,89.90
2019-01-04T23:55:43.160Z,90.36
2019-01-04T23:56:43.171Z,90.32
2019-01-04T23:57:43.159Z,90.53
2019-01-04T23:58:43.162Z,90.05
2019-01-04T23:59:43.175Z,90.53
